createdAt,value
2023-05-12T00:01:57.471Z,19.10
2023-05-12T00:04:26.250Z,19.00
2023-05-12T00:06:54.966Z,19.10
2023-05-12T00:09:23.439Z,19.10
2023-05-12T00:11:52.702Z,19.00
2023-05-12T00:14:21.130Z,19.00
2023-05-12T00:16:52.252Z,19.10
2023-05-12T00:19:21.187Z,19.00
2023-05-12T00:21:49.797Z,19.00
2023-05-12T00:24:18.188Z,19.10
2023-05-12T00:26:46.894Z,19.00
2023-05-12T00:29:15.404Z,19.00
2023-05-12T00:31:44.107Z,19.00
2023-05-12T00:34:12.520Z,19.00
2023-05-12T00:36:41.232Z,19.00
2023-05-12T00:39:10.396Z,19.00
2023-05-12T00:41:39.103Z,19.10
2023-05-12T00:44:07.575Z,19.00
2023-05-12T00:46:37.208Z,19.00
2023-05-12T00:49:05.554Z,19.00
2023-05-12T00:51:34.313Z,19.00
2023-05-12T00:54:02.884Z,19.00
2023-05-12T00:56:31.583Z,19.00
2023-05-12T00:58:59.981Z,19.00
2023-05-12T01:01:30.660Z,19.00
2023-05-12T01:03:59.307Z,19.00
2023-05-12T01:07:05.926Z,19.00
2023-05-12T01:09:34.685Z,19.00
2023-05-12T01:12:04.414Z,19.00
2023-05-12T01:14:34.530Z,19.00
2023-05-12T01:17:06.252Z,19.00
2023-05-12T01:19:42.182Z,19.00
2023-05-12T01:22:13.117Z,19.00
2023-05-12T01:24:57.610Z,19.00
2023-05-12T01:27:28.618Z,19.00
2023-05-12T01:30:00.890Z,19.00
2023-05-12T01:32:31.101Z,19.00
2023-05-12T01:35:00.435Z,19.00
2023-05-12T01:37:31.156Z,19.00
2023-05-12T01:40:00.461Z,19.00
2023-05-12T01:42:29.254Z,19.00
2023-05-12T01:44:57.715Z,19.00
2023-05-12T01:47:27.722Z,19.00
2023-05-12T01:50:13.818Z,19.00
2023-05-12T01:52:44.777Z,19.00
2023-05-12T01:55:16.455Z,19.00
2023-05-12T01:57:51.759Z,19.00
2023-05-12T02:00:21.914Z,19.00
2023-05-12T02:02:53.527Z,19.00
2023-05-12T02:05:22.426Z,19.00
2023-05-12T02:07:52.398Z,19.00
2023-05-12T02:10:21.184Z,19.00
2023-05-12T02:12:50.230Z,19.00
2023-05-12T02:15:19.089Z,19.00
2023-05-12T02:17:50.493Z,19.00
2023-05-12T02:20:20.160Z,19.00
2023-05-12T02:22:49.014Z,19.00
2023-05-12T02:25:17.472Z,19.00
2023-05-12T02:27:46.901Z,19.00
2023-05-12T02:30:15.989Z,19.00
2023-05-12T02:32:44.842Z,19.00
2023-05-12T02:35:14.270Z,18.90
2023-05-12T02:37:44.209Z,19.00
2023-05-12T02:40:13.083Z,19.00
2023-05-12T02:42:43.853Z,19.00
2023-05-12T02:45:12.816Z,19.00
2023-05-12T02:47:41.709Z,19.00
2023-05-12T02:50:11.352Z,19.00
2023-05-12T02:52:40.267Z,19.00
2023-05-12T02:55:09.573Z,19.00
2023-05-12T02:57:38.326Z,19.00
2023-05-12T03:00:07.694Z,18.90
2023-05-12T03:02:39.961Z,19.00
2023-05-12T03:05:11.866Z,19.00
2023-05-12T03:07:40.621Z,18.90
2023-05-12T03:10:10.905Z,19.00
2023-05-12T03:12:39.797Z,18.90
2023-05-12T03:15:09.217Z,18.90
2023-05-12T03:17:38.120Z,18.90
2023-05-12T03:20:07.675Z,18.90
2023-05-12T03:22:38.338Z,18.90
2023-05-12T03:25:08.682Z,18.90
2023-05-12T03:27:37.898Z,18.90
2023-05-12T03:30:07.233Z,18.90
2023-05-12T03:32:41.696Z,18.90
2023-05-12T03:35:12.011Z,18.90
2023-05-12T03:37:41.148Z,18.90
2023-05-12T03:40:11.404Z,18.90
2023-05-12T03:42:40.057Z,18.90
2023-05-12T03:45:11.431Z,18.90
2023-05-12T03:47:40.990Z,18.90
2023-05-12T03:50:10.857Z,18.90
2023-05-12T03:52:41.709Z,18.90
2023-05-12T03:55:10.718Z,18.90
2023-05-12T03:57:39.423Z,18.90
2023-05-12T04:00:08.595Z,18.90
2023-05-12T04:02:46.694Z,18.90
2023-05-12T04:05:16.421Z,18.90
2023-05-12T08:09:00.959Z,18.90
2023-05-12T08:11:29.616Z,18.90
2023-05-12T08:13:58.017Z,19.00
2023-05-12T08:16:26.868Z,19.00
2023-05-12T08:18:55.309Z,19.00
2023-05-12T08:21:24.216Z,19.00
2023-05-12T08:23:52.506Z,18.90
2023-05-12T08:26:21.614Z,19.00
2023-05-12T08:28:49.957Z,18.90
2023-05-12T08:31:18.790Z,19.00
2023-05-12T08:33:51.738Z,19.00
2023-05-12T08:36:22.830Z,18.90
2023-05-12T08:38:51.184Z,19.00
2023-05-12T08:41:23.751Z,19.00
2023-05-12T08:43:52.802Z,19.00
2023-05-12T08:46:21.794Z,19.00
2023-05-12T08:48:51.354Z,19.00
2023-05-12T08:51:20.063Z,19.00
2023-05-12T08:53:48.515Z,19.00
2023-05-12T08:58:51.872Z,19.00
2023-05-12T09:01:21.238Z,19.00
2023-05-12T09:03:51.421Z,19.00
2023-05-12T09:06:20.605Z,19.00
2023-05-12T09:08:49.024Z,19.00
2023-05-12T09:11:17.998Z,19.00
2023-05-12T09:14:09.264Z,19.00
2023-05-12T09:16:44.571Z,19.00
2023-05-12T09:19:12.993Z,19.00
2023-05-12T09:21:42.136Z,19.00
2023-05-12T09:24:10.455Z,19.00
2023-05-12T09:27:05.785Z,19.00
2023-05-12T09:29:37.520Z,19.00
2023-05-12T09:32:11.147Z,19.10
2023-05-12T09:34:41.686Z,19.10
2023-05-12T09:37:10.554Z,19.10
2023-05-12T09:39:38.936Z,19.10
2023-05-12T09:42:13.074Z,19.10
2023-05-12T09:44:42.232Z,19.10
2023-05-12T09:47:11.231Z,19.10
2023-05-12T09:49:42.286Z,19.10
2023-05-12T09:52:10.960Z,19.10
2023-05-12T09:54:39.476Z,19.10
2023-05-12T09:57:08.986Z,19.10
2023-05-12T09:59:39.680Z,19.10
2023-05-12T10:02:09.903Z,19.10
2023-05-12T10:04:53.700Z,19.10
2023-05-12T10:07:24.267Z,19.10
2023-05-12T10:09:53.045Z,19.10
2023-05-12T10:12:21.724Z,19.20
2023-05-12T10:14:50.494Z,19.20
2023-05-12T10:17:20.854Z,19.20
2023-05-12T10:19:49.378Z,19.10
2023-05-12T10:22:18.052Z,19.20
2023-05-12T10:24:46.512Z,19.20
2023-05-12T10:27:16.118Z,19.20
2023-05-12T10:29:44.624Z,19.20
2023-05-12T10:32:13.334Z,19.20
2023-05-12T10:34:42.269Z,19.20
2023-05-12T10:37:11.611Z,19.30
2023-05-12T10:39:51.692Z,19.30
2023-05-12T10:42:26.275Z,19.20
2023-05-12T10:44:56.699Z,19.30
2023-05-12T10:47:29.594Z,19.20
2023-05-12T10:50:01.202Z,19.20
2023-05-12T10:52:30.002Z,19.20
2023-05-12T10:55:03.502Z,19.20
2023-05-12T10:57:33.514Z,19.20
2023-05-12T11:00:03.870Z,19.10
2023-05-12T11:02:36.152Z,19.20
2023-05-12T11:05:13.038Z,19.20
2023-05-12T11:07:50.083Z,19.10
2023-05-12T11:10:19.594Z,19.10
2023-05-12T11:12:48.854Z,19.10
2023-05-12T11:15:18.081Z,19.10
2023-05-12T11:17:49.336Z,19.10
2023-05-12T11:20:29.471Z,19.10
2023-05-12T11:22:59.806Z,19.10
2023-05-12T11:25:28.565Z,19.10
2023-05-12T11:27:57.657Z,19.10
2023-05-12T11:30:26.130Z,19.10
2023-05-12T11:33:02.839Z,19.10
2023-05-12T11:35:32.838Z,19.10
2023-05-12T11:38:03.308Z,19.10
2023-05-12T11:40:31.757Z,19.20
2023-05-12T11:43:01.820Z,19.20
2023-05-12T11:45:30.831Z,19.20
2023-05-12T11:48:11.916Z,19.20
2023-05-12T11:50:43.053Z,19.20
2023-05-12T11:53:15.212Z,19.20
2023-05-12T11:55:56.991Z,19.20
2023-05-12T11:58:29.506Z,19.20
2023-05-12T12:01:08.387Z,19.30
2023-05-12T12:03:49.117Z,19.30
2023-05-12T12:06:18.029Z,19.30
2023-05-12T12:09:02.531Z,19.30
2023-05-12T12:11:31.542Z,19.30
2023-05-12T12:14:01.032Z,19.30
2023-05-12T12:16:31.679Z,19.30
2023-05-12T12:19:00.427Z,19.40
2023-05-12T12:21:28.784Z,19.40
2023-05-12T12:23:57.799Z,19.40
2023-05-12T12:26:26.209Z,19.40
2023-05-12T12:28:55.030Z,19.40
2023-05-12T12:31:23.285Z,19.40
2023-05-12T12:33:51.886Z,19.40
2023-05-12T12:36:20.230Z,19.40
2023-05-12T12:38:49.031Z,19.40
2023-05-12T12:41:17.226Z,19.40
2023-05-12T12:43:45.820Z,19.40
2023-05-12T12:46:14.190Z,19.40
2023-05-12T12:48:43.263Z,19.40
2023-05-12T12:51:11.886Z,19.40
2023-05-12T12:53:43.540Z,19.40
2023-05-12T12:56:12.295Z,19.40
2023-05-12T12:58:41.530Z,19.40
2023-05-12T13:01:09.776Z,19.40
2023-05-12T13:03:38.655Z,19.40
2023-05-12T13:06:07.195Z,19.50
2023-05-12T13:08:35.914Z,19.40
2023-05-12T13:11:04.222Z,19.40
2023-05-12T13:13:32.853Z,19.40
2023-05-12T13:16:01.134Z,19.40
2023-05-12T13:18:29.828Z,19.40
2023-05-12T13:20:58.543Z,19.40
2023-05-12T13:23:27.106Z,19.40
2023-05-12T13:25:55.393Z,19.40
2023-05-12T13:28:24.135Z,19.50
2023-05-12T13:30:52.998Z,19.40
2023-05-12T13:33:21.965Z,19.50
2023-05-12T13:35:50.267Z,19.40
2023-05-12T13:38:20.030Z,19.40
2023-05-12T13:40:48.351Z,19.40
2023-05-12T13:43:16.942Z,19.40
2023-05-12T13:45:45.407Z,19.40
2023-05-12T13:48:14.165Z,19.50
2023-05-12T13:50:42.670Z,19.50
2023-05-12T13:53:12.904Z,19.50
2023-05-12T13:55:41.592Z,19.60
2023-05-12T13:58:10.206Z,19.60
2023-05-12T14:00:38.610Z,19.60
2023-05-12T14:03:08.142Z,19.50
2023-05-12T14:05:36.517Z,19.60
2023-05-12T14:08:05.403Z,19.60
2023-05-12T14:10:35.552Z,19.60
2023-05-12T14:13:04.592Z,19.60
2023-05-12T14:15:47.179Z,19.60
2023-05-12T14:18:17.649Z,19.60
2023-05-12T14:20:46.399Z,19.60
2023-05-12T14:23:15.157Z,19.60
2023-05-12T14:25:43.524Z,19.60
2023-05-12T14:28:12.541Z,19.60
2023-05-12T14:30:41.028Z,19.60
2023-05-12T14:33:09.712Z,19.60
2023-05-12T14:35:38.237Z,19.60
2023-05-12T14:38:06.828Z,19.60
2023-05-12T14:40:35.182Z,19.60
2023-05-12T14:43:03.754Z,19.60
2023-05-12T14:45:32.309Z,19.60
2023-05-12T14:48:01.152Z,19.60
2023-05-12T14:50:29.726Z,19.60
2023-05-12T14:52:58.683Z,19.60
2023-05-12T14:55:28.563Z,19.60
2023-05-12T14:57:57.465Z,19.60
2023-05-12T15:00:26.113Z,19.60
2023-05-12T15:02:54.768Z,19.60
2023-05-12T15:05:32.454Z,19.60
2023-05-12T15:08:10.766Z,19.50
2023-05-12T15:10:39.077Z,19.60
2023-05-12T15:13:08.114Z,19.50
2023-05-12T15:15:39.492Z,19.60
2023-05-12T15:18:08.487Z,19.60
2023-05-12T15:20:37.787Z,19.60
2023-05-12T15:23:06.481Z,19.60
2023-05-12T15:25:34.917Z,19.60
2023-05-12T15:28:03.744Z,19.60
2023-05-12T15:30:32.151Z,19.60
2023-05-12T15:33:04.371Z,19.60
2023-05-12T15:35:33.282Z,19.60
2023-05-12T15:38:02.038Z,19.60
2023-05-12T15:40:31.311Z,19.60
2023-05-12T15:43:00.109Z,19.60
2023-05-12T15:45:28.510Z,19.60
2023-05-12T15:47:58.276Z,19.70
2023-05-12T15:50:26.664Z,19.60
2023-05-12T15:52:57.411Z,19.60
2023-05-12T15:55:25.787Z,19.60
2023-05-12T15:57:54.445Z,19.60
2023-05-12T16:00:22.976Z,19.70
2023-05-12T16:02:51.629Z,19.60
2023-05-12T16:05:20.485Z,19.60
2023-05-12T16:07:49.322Z,19.60
2023-05-12T16:10:17.731Z,19.70
2023-05-12T16:12:46.450Z,19.60
2023-05-12T16:15:14.854Z,19.60
2023-05-12T16:17:43.617Z,19.60
2023-05-12T16:20:12.889Z,19.70
2023-05-12T16:22:41.502Z,19.70
2023-05-12T16:25:09.921Z,19.70
2023-05-12T16:27:39.019Z,19.70
2023-05-12T16:30:08.658Z,19.70
2023-05-12T16:32:37.287Z,19.70
2023-05-12T16:35:07.012Z,19.70
2023-05-12T16:37:35.602Z,19.80
2023-05-12T16:40:04.471Z,19.70
2023-05-12T16:42:33.324Z,19.70
2023-05-12T16:45:01.733Z,19.70
2023-05-12T16:47:30.521Z,19.70
2023-05-12T16:50:00.037Z,19.70
2023-05-12T16:52:28.926Z,19.80
2023-05-12T16:55:00.381Z,19.80
2023-05-12T16:57:29.060Z,19.80
2023-05-12T16:59:57.442Z,19.80
2023-05-12T17:02:26.035Z,19.80
2023-05-12T17:04:54.397Z,19.80
2023-05-12T17:07:23.522Z,19.80
2023-05-12T17:09:51.962Z,19.80
2023-05-12T17:12:20.927Z,19.80
2023-05-12T17:14:59.436Z,19.80
2023-05-12T17:17:35.893Z,19.70
2023-05-12T17:20:06.310Z,19.70
2023-05-12T17:22:37.394Z,19.70
2023-05-12T17:25:06.290Z,19.70
2023-05-12T17:27:34.920Z,19.60
2023-05-12T17:30:04.692Z,19.70
2023-05-12T17:32:33.414Z,19.70
2023-05-12T17:35:01.685Z,19.60
2023-05-12T17:37:30.715Z,19.60
2023-05-12T17:39:59.664Z,19.60
2023-05-12T17:42:31.494Z,19.50
2023-05-12T17:45:00.021Z,19.50
2023-05-12T17:47:28.758Z,19.40
2023-05-12T17:49:57.156Z,19.30
2023-05-12T17:54:57.469Z,19.20
2023-05-12T17:57:26.133Z,19.20
2023-05-12T17:59:54.403Z,19.10
2023-05-12T18:02:23.169Z,19.10
2023-05-12T18:04:51.567Z,19.10
2023-05-12T18:07:20.418Z,19.10
2023-05-12T18:09:48.710Z,19.10
2023-05-12T18:12:18.624Z,19.00
2023-05-12T19:14:28.732Z,18.90
2023-05-12T19:16:58.874Z,19.40
2023-05-12T19:19:27.150Z,19.40
2023-05-12T19:21:55.895Z,19.40
2023-05-12T19:24:26.003Z,19.40
2023-05-12T19:26:54.868Z,19.40
2023-05-12T19:29:23.457Z,19.40
2023-05-12T19:31:53.306Z,19.40
2023-05-12T19:34:21.847Z,19.40
2023-05-12T19:36:53.142Z,19.30
2023-05-12T19:39:21.573Z,19.40
2023-05-12T19:41:51.712Z,19.40
2023-05-12T19:44:20.069Z,19.40
2023-05-12T19:46:48.887Z,19.40
2023-05-12T19:49:17.333Z,19.40
2023-05-12T19:51:46.092Z,19.40
2023-05-12T19:54:14.458Z,19.40
2023-05-12T19:56:43.151Z,19.40
2023-05-12T19:59:11.514Z,19.40
2023-05-12T20:01:41.254Z,19.40
2023-05-12T20:04:09.689Z,19.40
2023-05-12T20:06:38.364Z,19.40
2023-05-12T20:09:07.314Z,19.40
2023-05-12T20:11:36.117Z,19.40
2023-05-12T20:14:04.477Z,19.40
2023-05-12T20:16:33.373Z,19.40
2023-05-12T20:19:02.991Z,19.40
2023-05-12T20:21:32.295Z,19.40
2023-05-12T20:24:00.769Z,19.40
2023-05-12T20:26:30.770Z,19.40
2023-05-12T20:29:00.479Z,19.40
2023-05-12T20:31:29.329Z,19.40
2023-05-12T20:33:58.045Z,19.40
2023-05-12T20:36:26.788Z,19.40
2023-05-12T20:38:55.123Z,19.40
2023-05-12T20:41:23.926Z,19.40
2023-05-12T20:43:52.309Z,19.40
2023-05-12T20:46:21.207Z,19.40
2023-05-12T20:48:49.549Z,19.40
2023-05-12T20:51:18.167Z,19.50
2023-05-12T20:53:46.507Z,19.50
2023-05-12T20:56:15.357Z,19.50
2023-05-12T20:58:43.882Z,19.50
2023-05-12T21:01:12.699Z,19.40
2023-05-12T21:03:42.339Z,19.40
2023-05-12T21:06:12.437Z,19.40
2023-05-12T21:08:41.348Z,19.40
2023-05-12T21:11:17.719Z,19.40
2023-05-12T21:13:47.772Z,19.30
2023-05-12T21:16:17.063Z,19.30
2023-05-12T21:18:45.863Z,19.30
2023-05-12T21:21:14.767Z,19.30
2023-05-12T21:23:43.396Z,19.30
2023-05-12T21:26:12.774Z,19.30
2023-05-12T21:28:41.392Z,19.30
2023-05-12T21:31:10.194Z,19.30
2023-05-12T21:33:38.845Z,19.30
2023-05-12T21:36:08.090Z,19.30
2023-05-12T21:38:36.627Z,19.30
2023-05-12T21:41:05.945Z,19.30
2023-05-12T21:43:34.613Z,19.20
2023-05-12T21:46:04.832Z,19.20
2023-05-12T21:48:34.767Z,19.30
2023-05-12T21:51:04.141Z,19.20
2023-05-12T21:53:32.501Z,19.20
2023-05-12T21:56:01.181Z,19.20
2023-05-12T21:58:30.404Z,19.20
2023-05-12T22:01:00.140Z,19.20
2023-05-12T22:03:28.596Z,19.20
2023-05-12T22:05:57.389Z,19.20
2023-05-12T22:08:25.989Z,19.20
2023-05-12T22:10:54.659Z,19.20
2023-05-12T22:13:23.002Z,19.20
2023-05-12T22:15:51.724Z,19.20
2023-05-12T22:18:21.357Z,19.20
2023-05-12T22:20:50.354Z,19.20
2023-05-12T22:23:18.759Z,19.20
2023-05-12T22:25:47.744Z,19.20
2023-05-12T22:28:17.021Z,19.20
2023-05-12T22:30:45.681Z,19.20
2023-05-12T22:33:14.036Z,19.20
2023-05-12T22:35:43.086Z,19.20
2023-05-12T22:38:11.423Z,19.20
2023-05-12T22:40:40.103Z,19.20
2023-05-12T22:43:09.721Z,19.20
2023-05-12T22:45:38.338Z,19.20
2023-05-12T22:48:06.675Z,19.20
2023-05-12T22:50:35.378Z,19.20
2023-05-12T22:53:03.625Z,19.20
2023-05-12T22:55:32.344Z,19.20
2023-05-12T22:58:00.720Z,19.20
2023-05-12T23:00:29.319Z,19.20
2023-05-12T23:02:57.750Z,19.20
2023-05-12T23:05:26.505Z,19.20
2023-05-12T23:07:54.918Z,19.20
2023-05-12T23:10:24.118Z,19.20
2023-05-12T23:12:52.596Z,19.20
2023-05-12T23:15:21.486Z,19.20
2023-05-12T23:17:49.895Z,19.20
2023-05-12T23:20:19.201Z,19.20
2023-05-12T23:22:47.742Z,19.20
2023-05-12T23:25:16.598Z,19.20
2023-05-12T23:27:44.984Z,19.20
2023-05-12T23:30:13.968Z,19.20
2023-05-12T23:32:42.683Z,19.20
2023-05-12T23:35:11.550Z,19.20
2023-05-12T23:37:39.888Z,19.20
2023-05-12T23:40:09.462Z,19.20
2023-05-12T23:42:37.849Z,19.20
2023-05-12T23:45:07.739Z,19.20
2023-05-12T23:47:36.401Z,19.20
2023-05-12T23:50:05.920Z,19.20
2023-05-12T23:52:34.198Z,19.20
2023-05-12T23:55:02.861Z,19.20
2023-05-12T23:57:31.221Z,19.20
2023-05-12T23:59:59.948Z,19.20
